sensor_id;sensor_type;location;lat;lon;timestamp;temperature;humidity
20714;DHT22;10518;50.742;4.226;2022-08-03T00:01:36;22.60;99.90
20714;DHT22;10518;50.742;4.226;2022-08-03T00:04:03;22.60;99.90
20714;DHT22;10518;50.742;4.226;2022-08-03T00:06:29;22.50;99.90
20714;DHT22;10518;50.742;4.226;2022-08-03T00:08:55;22.60;99.90
20714;DHT22;10518;50.742;4.226;2022-08-03T00:11:20;22.50;99.90
20714;DHT22;10518;50.742;4.226;2022-08-03T00:13:46;22.50;99.90
20714;DHT22;10518;50.742;4.226;2022-08-03T00:16:11;22.50;99.90
20714;DHT22;10518;50.742;4.226;2022-08-03T00:18:38;22.50;99.90
20714;DHT22;10518;50.742;4.226;2022-08-03T00:21:04;22.40;99.90
20714;DHT22;10518;50.742;4.226;2022-08-03T00:23:29;22.40;99.90
20714;DHT22;10518;50.742;4.226;2022-08-03T00:25:55;22.30;99.90
20714;DHT22;10518;50.742;4.226;2022-08-03T00:28:21;22.30;99.90
20714;DHT22;10518;50.742;4.226;2022-08-03T00:30:47;22.30;99.90
20714;DHT22;10518;50.742;4.226;2022-08-03T00:33:12;22.30;99.90
20714;DHT22;10518;50.742;4.226;2022-08-03T00:35:38;22.30;99.90
20714;DHT22;10518;50.742;4.226;2022-08-03T00:38:04;22.20;99.90
20714;DHT22;10518;50.742;4.226;2022-08-03T00:40:30;22.20;99.90
20714;DHT22;10518;50.742;4.226;2022-08-03T00:45:30;22.10;99.90
20714;DHT22;10518;50.742;4.226;2022-08-03T00:47:56;22.00;99.90
20714;DHT22;10518;50.742;4.226;2022-08-03T00:50:24;22.00;99.90
20714;DHT22;10518;50.742;4.226;2022-08-03T00:52:56;21.90;99.90
20714;DHT22;10518;50.742;4.226;2022-08-03T00:55:22;21.90;99.90
20714;DHT22;10518;50.742;4.226;2022-08-03T00:57:48;21.80;99.90
20714;DHT22;10518;50.742;4.226;2022-08-03T01:00:17;21.80;99.90
20714;DHT22;10518;50.742;4.226;2022-08-03T01:02:44;21.80;99.90
20714;DHT22;10518;50.742;4.226;2022-08-03T01:05:09;21.80;99.90
20714;DHT22;10518;50.742;4.226;2022-08-03T01:16:24;21.70;99.90
20714;DHT22;10518;50.742;4.226;2022-08-03T01:21:33;21.70;99.90
20714;DHT22;10518;50.742;4.226;2022-08-03T01:26:39;21.60;99.90
20714;DHT22;10518;50.742;4.226;2022-08-03T01:32:06;21.60;99.90
20714;DHT22;10518;50.742;4.226;2022-08-03T01:34:38;21.50;99.90
20714;DHT22;10518;50.742;4.226;2022-08-03T01:37:06;21.40;99.90
20714;DHT22;10518;50.742;4.226;2022-08-03T01:39:36;21.40;99.90
20714;DHT22;10518;50.742;4.226;2022-08-03T01:42:06;21.40;99.90
20714;DHT22;10518;50.742;4.226;2022-08-03T01:44:39;21.40;99.90
20714;DHT22;10518;50.742;4.226;2022-08-03T01:47:06;21.40;99.90
20714;DHT22;10518;50.742;4.226;2022-08-03T01:49:36;21.30;99.90
20714;DHT22;10518;50.742;4.226;2022-08-03T01:52:03;21.20;99.90
20714;DHT22;10518;50.742;4.226;2022-08-03T01:54:29;21.20;99.90
20714;DHT22;10518;50.742;4.226;2022-08-03T01:56:57;21.20;99.90
20714;DHT22;10518;50.742;4.226;2022-08-03T01:59:24;21.20;99.90
20714;DHT22;10518;50.742;4.226;2022-08-03T02:01:50;21.10;99.90
20714;DHT22;10518;50.742;4.226;2022-08-03T02:04:17;21.10;99.90
20714;DHT22;10518;50.742;4.226;2022-08-03T02:06:45;21.10;99.90
20714;DHT22;10518;50.742;4.226;2022-08-03T02:09:12;21.00;99.90
20714;DHT22;10518;50.742;4.226;2022-08-03T02:11:39;21.00;99.90
20714;DHT22;10518;50.742;4.226;2022-08-03T02:14:05;20.90;99.90
20714;DHT22;10518;50.742;4.226;2022-08-03T02:16:32;20.90;99.90
20714;DHT22;10518;50.742;4.226;2022-08-03T02:19:02;20.90;99.90
20714;DHT22;10518;50.742;4.226;2022-08-03T02:21:29;20.90;99.90
20714;DHT22;10518;50.742;4.226;2022-08-03T02:23:56;20.90;99.90
20714;DHT22;10518;50.742;4.226;2022-08-03T02:26:23;20.80;99.90
20714;DHT22;10518;50.742;4.226;2022-08-03T02:28:55;20.80;99.90
20714;DHT22;10518;50.742;4.226;2022-08-03T02:31:25;20.80;99.90
20714;DHT22;10518;50.742;4.226;2022-08-03T02:33:54;20.70;99.90
20714;DHT22;10518;50.742;4.226;2022-08-03T02:36:24;20.70;99.90
20714;DHT22;10518;50.742;4.226;2022-08-03T02:38:54;20.60;99.90
20714;DHT22;10518;50.742;4.226;2022-08-03T02:41:29;20.60;99.90
20714;DHT22;10518;50.742;4.226;2022-08-03T02:43:58;20.50;99.90
20714;DHT22;10518;50.742;4.226;2022-08-03T02:46:29;20.50;99.90
20714;DHT22;10518;50.742;4.226;2022-08-03T02:48:59;20.50;99.90
20714;DHT22;10518;50.742;4.226;2022-08-03T02:51:27;20.50;99.90
20714;DHT22;10518;50.742;4.226;2022-08-03T02:53:54;20.40;99.90
20714;DHT22;10518;50.742;4.226;2022-08-03T02:56:21;20.40;99.90
20714;DHT22;10518;50.742;4.226;2022-08-03T02:58:48;20.40;99.90
20714;DHT22;10518;50.742;4.226;2022-08-03T03:01:15;20.40;99.90
20714;DHT22;10518;50.742;4.226;2022-08-03T03:03:41;20.40;99.90
20714;DHT22;10518;50.742;4.226;2022-08-03T03:06:07;20.30;99.90
20714;DHT22;10518;50.742;4.226;2022-08-03T03:08:36;20.30;99.90
20714;DHT22;10518;50.742;4.226;2022-08-03T03:11:01;20.30;99.90
20714;DHT22;10518;50.742;4.226;2022-08-03T03:13:28;20.30;99.90
20714;DHT22;10518;50.742;4.226;2022-08-03T03:15:56;20.30;99.90
20714;DHT22;10518;50.742;4.226;2022-08-03T03:18:24;20.20;99.90
20714;DHT22;10518;50.742;4.226;2022-08-03T03:20:52;20.20;99.90
20714;DHT22;10518;50.742;4.226;2022-08-03T03:23:20;20.20;99.90
20714;DHT22;10518;50.742;4.226;2022-08-03T03:25:46;20.20;99.90
20714;DHT22;10518;50.742;4.226;2022-08-03T03:28:12;20.20;99.90
20714;DHT22;10518;50.742;4.226;2022-08-03T03:30:38;20.20;99.90
20714;DHT22;10518;50.742;4.226;2022-08-03T03:33:04;20.20;99.90
20714;DHT22;10518;50.742;4.226;2022-08-03T03:35:30;20.20;99.90
20714;DHT22;10518;50.742;4.226;2022-08-03T03:37:56;20.10;99.90
20714;DHT22;10518;50.742;4.226;2022-08-03T03:40:22;20.20;99.90
20714;DHT22;10518;50.742;4.226;2022-08-03T03:42:49;20.20;99.90
20714;DHT22;10518;50.742;4.226;2022-08-03T03:45:14;20.20;99.90
20714;DHT22;10518;50.742;4.226;2022-08-03T03:47:40;20.10;99.90
20714;DHT22;10518;50.742;4.226;2022-08-03T03:50:06;20.10;99.90
20714;DHT22;10518;50.742;4.226;2022-08-03T03:52:33;20.10;99.90
20714;DHT22;10518;50.742;4.226;2022-08-03T03:54:59;20.10;99.90
20714;DHT22;10518;50.742;4.226;2022-08-03T03:57:24;20.10;99.90
20714;DHT22;10518;50.742;4.226;2022-08-03T03:59:50;20.00;99.90
20714;DHT22;10518;50.742;4.226;2022-08-03T04:02:16;20.00;99.90
20714;DHT22;10518;50.742;4.226;2022-08-03T04:04:41;20.00;99.90
20714;DHT22;10518;50.742;4.226;2022-08-03T04:07:26;20.00;99.90
20714;DHT22;10518;50.742;4.226;2022-08-03T04:10:22;20.00;99.90
20714;DHT22;10518;50.742;4.226;2022-08-03T04:13:09;20.00;99.90
20714;DHT22;10518;50.742;4.226;2022-08-03T04:15:38;20.00;99.90
20714;DHT22;10518;50.742;4.226;2022-08-03T04:18:07;20.00;99.90
20714;DHT22;10518;50.742;4.226;2022-08-03T04:20:36;20.00;99.90
20714;DHT22;10518;50.742;4.226;2022-08-03T04:23:03;19.90;99.90
20714;DHT22;10518;50.742;4.226;2022-08-03T04:25:32;19.90;99.90
20714;DHT22;10518;50.742;4.226;2022-08-03T04:28:00;19.90;99.90
20714;DHT22;10518;50.742;4.226;2022-08-03T04:30:30;20.00;99.90
20714;DHT22;10518;50.742;4.226;2022-08-03T04:32:58;20.00;99.90
20714;DHT22;10518;50.742;4.226;2022-08-03T04:35:30;19.90;99.90
20714;DHT22;10518;50.742;4.226;2022-08-03T04:38:00;19.90;99.90
20714;DHT22;10518;50.742;4.226;2022-08-03T04:40:30;19.90;99.90
20714;DHT22;10518;50.742;4.226;2022-08-03T04:42:58;19.90;99.90
20714;DHT22;10518;50.742;4.226;2022-08-03T04:45:24;19.90;99.90
20714;DHT22;10518;50.742;4.226;2022-08-03T04:47:51;20.00;99.90
20714;DHT22;10518;50.742;4.226;2022-08-03T04:50:18;20.00;99.90
20714;DHT22;10518;50.742;4.226;2022-08-03T04:52:44;20.00;99.90
20714;DHT22;10518;50.742;4.226;2022-08-03T04:55:09;20.00;99.90
20714;DHT22;10518;50.742;4.226;2022-08-03T04:57:35;20.00;99.90
20714;DHT22;10518;50.742;4.226;2022-08-03T05:00:01;20.10;99.90
20714;DHT22;10518;50.742;4.226;2022-08-03T05:02:27;20.20;99.90
20714;DHT22;10518;50.742;4.226;2022-08-03T05:04:53;20.20;99.90
20714;DHT22;10518;50.742;4.226;2022-08-03T05:07:19;20.30;99.90
20714;DHT22;10518;50.742;4.226;2022-08-03T05:09:45;20.30;99.90
20714;DHT22;10518;50.742;4.226;2022-08-03T05:12:10;20.40;99.90
20714;DHT22;10518;50.742;4.226;2022-08-03T05:14:37;20.60;99.90
20714;DHT22;10518;50.742;4.226;2022-08-03T05:17:06;20.70;99.90
20714;DHT22;10518;50.742;4.226;2022-08-03T05:19:32;20.70;99.90
20714;DHT22;10518;50.742;4.226;2022-08-03T05:21:58;20.90;99.90
20714;DHT22;10518;50.742;4.226;2022-08-03T05:24:24;20.90;99.90
20714;DHT22;10518;50.742;4.226;2022-08-03T05:26:49;20.90;99.90
20714;DHT22;10518;50.742;4.226;2022-08-03T05:29:15;21.10;99.90
20714;DHT22;10518;50.742;4.226;2022-08-03T05:31:40;21.20;99.90
20714;DHT22;10518;50.742;4.226;2022-08-03T05:34:06;21.30;99.90
20714;DHT22;10518;50.742;4.226;2022-08-03T05:36:32;21.40;99.90
20714;DHT22;10518;50.742;4.226;2022-08-03T05:38:57;21.50;99.90
20714;DHT22;10518;50.742;4.226;2022-08-03T05:41:23;21.50;99.90
20714;DHT22;10518;50.742;4.226;2022-08-03T05:43:52;21.60;99.90
20714;DHT22;10518;50.742;4.226;2022-08-03T05:46:18;21.80;99.90
20714;DHT22;10518;50.742;4.226;2022-08-03T05:48:44;22.10;99.90
20714;DHT22;10518;50.742;4.226;2022-08-03T05:51:10;22.40;99.90
20714;DHT22;10518;50.742;4.226;2022-08-03T05:53:36;22.70;99.90
20714;DHT22;10518;50.742;4.226;2022-08-03T05:56:02;23.20;99.90
20714;DHT22;10518;50.742;4.226;2022-08-03T05:58:27;23.80;99.90
20714;DHT22;10518;50.742;4.226;2022-08-03T06:00:53;24.70;99.90
20714;DHT22;10518;50.742;4.226;2022-08-03T06:03:19;25.90;99.90
20714;DHT22;10518;50.742;4.226;2022-08-03T06:05:45;27.30;99.90
20714;DHT22;10518;50.742;4.226;2022-08-03T06:08:10;28.40;99.90
20714;DHT22;10518;50.742;4.226;2022-08-03T06:10:36;29.40;99.90
20714;DHT22;10518;50.742;4.226;2022-08-03T06:13:02;30.30;99.90
20714;DHT22;10518;50.742;4.226;2022-08-03T06:15:28;31.00;99.90
20714;DHT22;10518;50.742;4.226;2022-08-03T06:17:53;31.80;99.90
20714;DHT22;10518;50.742;4.226;2022-08-03T06:20:21;32.40;99.90
20714;DHT22;10518;50.742;4.226;2022-08-03T06:22:47;33.00;99.90
20714;DHT22;10518;50.742;4.226;2022-08-03T06:25:13;33.50;99.90
20714;DHT22;10518;50.742;4.226;2022-08-03T06:27:39;33.90;99.90
20714;DHT22;10518;50.742;4.226;2022-08-03T06:30:10;33.60;99.90
20714;DHT22;10518;50.742;4.226;2022-08-03T06:32:37;34.00;99.90
20714;DHT22;10518;50.742;4.226;2022-08-03T06:35:04;34.30;99.90
20714;DHT22;10518;50.742;4.226;2022-08-03T06:37:30;34.60;99.90
20714;DHT22;10518;50.742;4.226;2022-08-03T06:39:56;34.80;99.90
20714;DHT22;10518;50.742;4.226;2022-08-03T06:42:21;34.90;99.90
20714;DHT22;10518;50.742;4.226;2022-08-03T06:44:47;35.00;99.90
20714;DHT22;10518;50.742;4.226;2022-08-03T06:47:13;35.00;99.90
20714;DHT22;10518;50.742;4.226;2022-08-03T06:49:38;35.30;99.90
20714;DHT22;10518;50.742;4.226;2022-08-03T06:52:05;35.50;99.90
20714;DHT22;10518;50.742;4.226;2022-08-03T06:54:30;35.80;99.80
20714;DHT22;10518;50.742;4.226;2022-08-03T06:56:56;35.80;99.70
20714;DHT22;10518;50.742;4.226;2022-08-03T06:59:22;35.90;99.40
20714;DHT22;10518;50.742;4.226;2022-08-03T07:01:47;35.90;99.30
20714;DHT22;10518;50.742;4.226;2022-08-03T07:04:13;36.10;99.10
20714;DHT22;10518;50.742;4.226;2022-08-03T07:06:38;36.30;98.50
20714;DHT22;10518;50.742;4.226;2022-08-03T07:09:04;36.40;98.70
20714;DHT22;10518;50.742;4.226;2022-08-03T07:11:29;36.50;97.60
20714;DHT22;10518;50.742;4.226;2022-08-03T07:13:55;36.50;97.60
20714;DHT22;10518;50.742;4.226;2022-08-03T07:16:21;36.60;97.70
20714;DHT22;10518;50.742;4.226;2022-08-03T07:18:47;36.60;97.10
20714;DHT22;10518;50.742;4.226;2022-08-03T07:21:12;36.70;97.00
20714;DHT22;10518;50.742;4.226;2022-08-03T07:23:39;36.50;97.20
20714;DHT22;10518;50.742;4.226;2022-08-03T07:26:04;36.70;97.30
20714;DHT22;10518;50.742;4.226;2022-08-03T07:28:30;36.80;96.70
20714;DHT22;10518;50.742;4.226;2022-08-03T07:30:56;36.90;96.80
20714;DHT22;10518;50.742;4.226;2022-08-03T07:33:21;36.90;96.90
20714;DHT22;10518;50.742;4.226;2022-08-03T07:35:47;37.00;96.80
20714;DHT22;10518;50.742;4.226;2022-08-03T07:38:13;37.30;95.90
20714;DHT22;10518;50.742;4.226;2022-08-03T07:40:38;37.50;95.50
20714;DHT22;10518;50.742;4.226;2022-08-03T07:43:04;37.50;95.10
20714;DHT22;10518;50.742;4.226;2022-08-03T07:45:30;37.50;95.40
20714;DHT22;10518;50.742;4.226;2022-08-03T07:47:56;37.60;94.80
20714;DHT22;10518;50.742;4.226;2022-08-03T07:50:21;37.80;94.30
20714;DHT22;10518;50.742;4.226;2022-08-03T07:52:47;37.80;94.10
20714;DHT22;10518;50.742;4.226;2022-08-03T07:55:17;37.50;94.90
20714;DHT22;10518;50.742;4.226;2022-08-03T07:57:43;37.60;94.50
20714;DHT22;10518;50.742;4.226;2022-08-03T08:00:15;37.70;93.50
20714;DHT22;10518;50.742;4.226;2022-08-03T08:02:42;38.00;93.30
20714;DHT22;10518;50.742;4.226;2022-08-03T08:05:08;37.80;93.00
20714;DHT22;10518;50.742;4.226;2022-08-03T08:07:35;37.00;94.30
20714;DHT22;10518;50.742;4.226;2022-08-03T08:10:03;36.90;93.90
20714;DHT22;10518;50.742;4.226;2022-08-03T08:12:29;36.30;94.30
20714;DHT22;10518;50.742;4.226;2022-08-03T08:14:54;35.10;95.90
20714;DHT22;10518;50.742;4.226;2022-08-03T08:17:20;34.60;95.80
20714;DHT22;10518;50.742;4.226;2022-08-03T08:19:46;34.10;96.40
20714;DHT22;10518;50.742;4.226;2022-08-03T08:22:11;34.00;97.00
20714;DHT22;10518;50.742;4.226;2022-08-03T08:24:37;33.60;96.90
20714;DHT22;10518;50.742;4.226;2022-08-03T08:27:03;33.00;97.60
20714;DHT22;10518;50.742;4.226;2022-08-03T08:29:28;32.70;98.50
20714;DHT22;10518;50.742;4.226;2022-08-03T08:31:54;32.60;98.60
20714;DHT22;10518;50.742;4.226;2022-08-03T08:34:19;32.50;98.50
20714;DHT22;10518;50.742;4.226;2022-08-03T08:36:45;32.30;98.00
20714;DHT22;10518;50.742;4.226;2022-08-03T08:39:10;31.90;98.50
20714;DHT22;10518;50.742;4.226;2022-08-03T08:41:36;31.40;99.90
20714;DHT22;10518;50.742;4.226;2022-08-03T08:44:02;31.10;99.60
20714;DHT22;10518;50.742;4.226;2022-08-03T08:46:31;30.90;99.80
20714;DHT22;10518;50.742;4.226;2022-08-03T08:48:58;31.00;99.90
20714;DHT22;10518;50.742;4.226;2022-08-03T08:51:28;31.30;99.40
20714;DHT22;10518;50.742;4.226;2022-08-03T08:53:56;30.90;99.90
20714;DHT22;10518;50.742;4.226;2022-08-03T08:56:24;30.80;99.90
20714;DHT22;10518;50.742;4.226;2022-08-03T08:58:53;31.00;99.90
20714;DHT22;10518;50.742;4.226;2022-08-03T09:01:21;31.30;99.60
20714;DHT22;10518;50.742;4.226;2022-08-03T09:03:47;31.30;99.90
20714;DHT22;10518;50.742;4.226;2022-08-03T09:06:13;31.40;99.50
20714;DHT22;10518;50.742;4.226;2022-08-03T09:08:39;31.20;99.90
20714;DHT22;10518;50.742;4.226;2022-08-03T09:11:05;31.00;99.90
20714;DHT22;10518;50.742;4.226;2022-08-03T09:13:32;31.10;99.90
20714;DHT22;10518;50.742;4.226;2022-08-03T09:16:19;31.10;99.90
20714;DHT22;10518;50.742;4.226;2022-08-03T09:18:47;31.30;99.80
20714;DHT22;10518;50.742;4.226;2022-08-03T09:23:51;31.20;99.80
20714;DHT22;10518;50.742;4.226;2022-08-03T09:26:25;31.00;99.90
20714;DHT22;10518;50.742;4.226;2022-08-03T09:28:59;30.90;99.90
20714;DHT22;10518;50.742;4.226;2022-08-03T09:31:38;31.10;99.90
20714;DHT22;10518;50.742;4.226;2022-08-03T09:34:06;31.30;99.90
20714;DHT22;10518;50.742;4.226;2022-08-03T09:36:45;31.30;99.90
20714;DHT22;10518;50.742;4.226;2022-08-03T09:39:13;31.20;99.90
20714;DHT22;10518;50.742;4.226;2022-08-03T09:41:42;31.00;99.90
20714;DHT22;10518;50.742;4.226;2022-08-03T09:44:08;31.10;99.90
20714;DHT22;10518;50.742;4.226;2022-08-03T09:46:55;31.10;99.90
20714;DHT22;10518;50.742;4.226;2022-08-03T09:49:21;31.10;99.90
20714;DHT22;10518;50.742;4.226;2022-08-03T09:51:47;31.00;99.90
20714;DHT22;10518;50.742;4.226;2022-08-03T09:54:28;31.30;99.90
20714;DHT22;10518;50.742;4.226;2022-08-03T09:56:54;31.10;99.90
20714;DHT22;10518;50.742;4.226;2022-08-03T09:59:25;31.00;99.90
20714;DHT22;10518;50.742;4.226;2022-08-03T10:01:52;31.00;99.90
20714;DHT22;10518;50.742;4.226;2022-08-03T10:04:17;31.00;99.90
20714;DHT22;10518;50.742;4.226;2022-08-03T10:06:45;31.10;99.90
20714;DHT22;10518;50.742;4.226;2022-08-03T10:09:25;31.30;99.90
20714;DHT22;10518;50.742;4.226;2022-08-03T10:11:51;31.50;99.90
20714;DHT22;10518;50.742;4.226;2022-08-03T10:14:17;31.30;99.90
20714;DHT22;10518;50.742;4.226;2022-08-03T10:16:47;31.30;99.90
20714;DHT22;10518;50.742;4.226;2022-08-03T10:19:13;31.30;99.90
20714;DHT22;10518;50.742;4.226;2022-08-03T10:21:41;31.60;99.90
20714;DHT22;10518;50.742;4.226;2022-08-03T10:24:11;31.30;99.90
20714;DHT22;10518;50.742;4.226;2022-08-03T10:26:38;31.00;99.90
20714;DHT22;10518;50.742;4.226;2022-08-03T10:29:11;30.80;99.90
20714;DHT22;10518;50.742;4.226;2022-08-03T10:31:44;31.10;99.90
20714;DHT22;10518;50.742;4.226;2022-08-03T10:34:21;31.50;99.90
20714;DHT22;10518;50.742;4.226;2022-08-03T10:36:48;31.70;99.90
20714;DHT22;10518;50.742;4.226;2022-08-03T10:39:18;31.70;99.90
20714;DHT22;10518;50.742;4.226;2022-08-03T10:41:45;31.50;99.90
20714;DHT22;10518;50.742;4.226;2022-08-03T10:44:17;31.70;99.90
20714;DHT22;10518;50.742;4.226;2022-08-03T10:46:44;31.70;99.90
20714;DHT22;10518;50.742;4.226;2022-08-03T10:49:15;31.60;99.90
20714;DHT22;10518;50.742;4.226;2022-08-03T10:51:45;31.50;99.90
20714;DHT22;10518;50.742;4.226;2022-08-03T10:54:37;31.40;99.90
20714;DHT22;10518;50.742;4.226;2022-08-03T10:57:43;31.50;99.90
20714;DHT22;10518;50.742;4.226;2022-08-03T11:00:09;31.70;99.90
20714;DHT22;10518;50.742;4.226;2022-08-03T11:03:01;31.90;99.90
20714;DHT22;10518;50.742;4.226;2022-08-03T11:05:29;31.80;99.90
20714;DHT22;10518;50.742;4.226;2022-08-03T11:10:42;31.40;99.90
20714;DHT22;10518;50.742;4.226;2022-08-03T11:13:08;31.80;99.50
20714;DHT22;10518;50.742;4.226;2022-08-03T11:15:36;31.80;99.30
20714;DHT22;10518;50.742;4.226;2022-08-03T11:18:07;32.00;99.60
20714;DHT22;10518;50.742;4.226;2022-08-03T11:20:50;32.30;99.00
20714;DHT22;10518;50.742;4.226;2022-08-03T11:23:18;32.40;98.80
20714;DHT22;10518;50.742;4.226;2022-08-03T11:26:09;32.30;98.80
20714;DHT22;10518;50.742;4.226;2022-08-03T11:28:35;32.30;99.00
20714;DHT22;10518;50.742;4.226;2022-08-03T11:34:07;32.40;98.50
20714;DHT22;10518;50.742;4.226;2022-08-03T11:39:44;32.20;99.40
20714;DHT22;10518;50.742;4.226;2022-08-03T11:44:53;32.60;98.50
20714;DHT22;10518;50.742;4.226;2022-08-03T11:47:20;32.80;97.80
20714;DHT22;10518;50.742;4.226;2022-08-03T11:49:47;32.70;98.30
20714;DHT22;10518;50.742;4.226;2022-08-03T11:52:13;32.70;98.60
20714;DHT22;10518;50.742;4.226;2022-08-03T11:54:40;32.90;97.60
20714;DHT22;10518;50.742;4.226;2022-08-03T11:57:06;32.80;97.90
20714;DHT22;10518;50.742;4.226;2022-08-03T11:59:33;32.80;98.20
20714;DHT22;10518;50.742;4.226;2022-08-03T12:02:09;32.80;98.00
20714;DHT22;10518;50.742;4.226;2022-08-03T12:04:55;32.90;97.40
20714;DHT22;10518;50.742;4.226;2022-08-03T12:07:26;33.00;98.20
20714;DHT22;10518;50.742;4.226;2022-08-03T12:10:11;33.00;98.20
20714;DHT22;10518;50.742;4.226;2022-08-03T12:12:38;33.10;97.50
20714;DHT22;10518;50.742;4.226;2022-08-03T12:15:06;32.70;97.70
20714;DHT22;10518;50.742;4.226;2022-08-03T12:17:36;33.00;97.00
20714;DHT22;10518;50.742;4.226;2022-08-03T12:20:04;33.10;97.00
20714;DHT22;10518;50.742;4.226;2022-08-03T12:22:38;32.90;97.60
20714;DHT22;10518;50.742;4.226;2022-08-03T12:25:08;32.80;97.40
20714;DHT22;10518;50.742;4.226;2022-08-03T12:27:34;32.80;96.60
20714;DHT22;10518;50.742;4.226;2022-08-03T12:30:00;32.80;97.20
20714;DHT22;10518;50.742;4.226;2022-08-03T12:32:28;32.60;97.00
20714;DHT22;10518;50.742;4.226;2022-08-03T12:34:54;32.60;97.30
20714;DHT22;10518;50.742;4.226;2022-08-03T12:37:24;32.70;97.30
20714;DHT22;10518;50.742;4.226;2022-08-03T12:39:59;33.00;96.60
20714;DHT22;10518;50.742;4.226;2022-08-03T12:42:33;32.90;97.80
20714;DHT22;10518;50.742;4.226;2022-08-03T12:44:59;33.20;96.00
20714;DHT22;10518;50.742;4.226;2022-08-03T12:47:25;33.30;96.70
20714;DHT22;10518;50.742;4.226;2022-08-03T12:49:52;33.40;95.80
20714;DHT22;10518;50.742;4.226;2022-08-03T12:52:21;33.20;96.50
20714;DHT22;10518;50.742;4.226;2022-08-03T12:54:59;33.20;95.30
20714;DHT22;10518;50.742;4.226;2022-08-03T12:57:39;33.20;96.00
20714;DHT22;10518;50.742;4.226;2022-08-03T13:00:13;33.40;96.10
20714;DHT22;10518;50.742;4.226;2022-08-03T13:02:39;33.60;95.40
20714;DHT22;10518;50.742;4.226;2022-08-03T13:05:12;33.50;94.80
20714;DHT22;10518;50.742;4.226;2022-08-03T13:07:42;33.30;94.50
20714;DHT22;10518;50.742;4.226;2022-08-03T13:10:09;33.30;94.70
20714;DHT22;10518;50.742;4.226;2022-08-03T13:12:45;33.40;95.00
20714;DHT22;10518;50.742;4.226;2022-08-03T13:15:11;33.40;95.30
20714;DHT22;10518;50.742;4.226;2022-08-03T13:17:37;33.50;96.10
20714;DHT22;10518;50.742;4.226;2022-08-03T13:20:03;33.60;95.80
20714;DHT22;10518;50.742;4.226;2022-08-03T13:22:29;33.60;95.70
20714;DHT22;10518;50.742;4.226;2022-08-03T13:24:55;33.60;95.30
20714;DHT22;10518;50.742;4.226;2022-08-03T13:27:22;33.40;96.00
20714;DHT22;10518;50.742;4.226;2022-08-03T13:29:49;33.50;95.20
20714;DHT22;10518;50.742;4.226;2022-08-03T13:32:15;33.10;95.10
20714;DHT22;10518;50.742;4.226;2022-08-03T13:34:40;32.70;95.60
20714;DHT22;10518;50.742;4.226;2022-08-03T13:37:06;32.90;95.60
20714;DHT22;10518;50.742;4.226;2022-08-03T13:39:32;33.10;96.10
20714;DHT22;10518;50.742;4.226;2022-08-03T13:41:57;33.70;95.40
20714;DHT22;10518;50.742;4.226;2022-08-03T13:44:23;33.80;95.20
20714;DHT22;10518;50.742;4.226;2022-08-03T13:46:48;33.70;94.30
20714;DHT22;10518;50.742;4.226;2022-08-03T13:49:14;33.30;95.00
20714;DHT22;10518;50.742;4.226;2022-08-03T13:51:40;33.30;95.00
20714;DHT22;10518;50.742;4.226;2022-08-03T13:54:06;33.40;94.90
20714;DHT22;10518;50.742;4.226;2022-08-03T13:56:32;33.60;94.20
20714;DHT22;10518;50.742;4.226;2022-08-03T13:58:57;33.70;94.20
20714;DHT22;10518;50.742;4.226;2022-08-03T14:01:24;33.70;94.40
20714;DHT22;10518;50.742;4.226;2022-08-03T14:03:51;33.80;94.90
20714;DHT22;10518;50.742;4.226;2022-08-03T14:06:19;33.60;94.90
20714;DHT22;10518;50.742;4.226;2022-08-03T14:08:45;33.60;95.50
20714;DHT22;10518;50.742;4.226;2022-08-03T14:11:12;33.70;94.70
20714;DHT22;10518;50.742;4.226;2022-08-03T14:13:38;34.00;94.60
20714;DHT22;10518;50.742;4.226;2022-08-03T14:16:04;34.10;94.10
20714;DHT22;10518;50.742;4.226;2022-08-03T14:18:30;33.70;94.10
20714;DHT22;10518;50.742;4.226;2022-08-03T14:20:57;33.50;94.80
20714;DHT22;10518;50.742;4.226;2022-08-03T14:23:23;33.40;95.10
20714;DHT22;10518;50.742;4.226;2022-08-03T14:25:48;33.20;95.50
20714;DHT22;10518;50.742;4.226;2022-08-03T14:28:14;33.40;94.60
20714;DHT22;10518;50.742;4.226;2022-08-03T14:30:39;33.60;94.80
20714;DHT22;10518;50.742;4.226;2022-08-03T14:33:05;34.00;94.80
20714;DHT22;10518;50.742;4.226;2022-08-03T14:35:31;34.30;94.20
20714;DHT22;10518;50.742;4.226;2022-08-03T14:37:56;34.30;94.20
20714;DHT22;10518;50.742;4.226;2022-08-03T14:40:22;34.20;93.90
20714;DHT22;10518;50.742;4.226;2022-08-03T14:42:47;34.10;93.40
20714;DHT22;10518;50.742;4.226;2022-08-03T14:45:13;34.10;94.30
20714;DHT22;10518;50.742;4.226;2022-08-03T14:47:39;34.20;94.60
20714;DHT22;10518;50.742;4.226;2022-08-03T14:50:06;34.00;93.80
20714;DHT22;10518;50.742;4.226;2022-08-03T14:52:32;34.10;94.20
20714;DHT22;10518;50.742;4.226;2022-08-03T14:54:58;33.90;93.90
20714;DHT22;10518;50.742;4.226;2022-08-03T14:57:24;33.90;94.30
20714;DHT22;10518;50.742;4.226;2022-08-03T14:59:50;33.70;94.00
20714;DHT22;10518;50.742;4.226;2022-08-03T15:02:15;33.60;94.60
20714;DHT22;10518;50.742;4.226;2022-08-03T15:04:41;33.30;95.20
20714;DHT22;10518;50.742;4.226;2022-08-03T15:07:06;33.20;94.90
20714;DHT22;10518;50.742;4.226;2022-08-03T15:09:32;32.90;95.50
20714;DHT22;10518;50.742;4.226;2022-08-03T15:11:58;32.70;96.00
20714;DHT22;10518;50.742;4.226;2022-08-03T15:14:24;32.70;96.30
20714;DHT22;10518;50.742;4.226;2022-08-03T15:16:50;32.70;96.30
20714;DHT22;10518;50.742;4.226;2022-08-03T15:19:16;32.80;95.70
20714;DHT22;10518;50.742;4.226;2022-08-03T15:21:41;32.90;95.70
20714;DHT22;10518;50.742;4.226;2022-08-03T15:24:07;33.30;95.00
20714;DHT22;10518;50.742;4.226;2022-08-03T15:26:32;33.30;95.20
20714;DHT22;10518;50.742;4.226;2022-08-03T15:28:58;33.40;94.70
20714;DHT22;10518;50.742;4.226;2022-08-03T15:31:24;33.30;95.20
20714;DHT22;10518;50.742;4.226;2022-08-03T15:33:50;33.10;94.90
20714;DHT22;10518;50.742;4.226;2022-08-03T15:36:17;33.00;94.70
20714;DHT22;10518;50.742;4.226;2022-08-03T15:38:43;33.00;95.00
20714;DHT22;10518;50.742;4.226;2022-08-03T15:41:08;32.90;95.00
20714;DHT22;10518;50.742;4.226;2022-08-03T15:43:34;32.70;94.90
20714;DHT22;10518;50.742;4.226;2022-08-03T15:46:00;32.80;95.40
20714;DHT22;10518;50.742;4.226;2022-08-03T15:48:25;32.90;95.10
20714;DHT22;10518;50.742;4.226;2022-08-03T15:50:51;32.60;94.50
20714;DHT22;10518;50.742;4.226;2022-08-03T15:53:17;33.00;94.50
20714;DHT22;10518;50.742;4.226;2022-08-03T15:55:42;33.50;94.30
20714;DHT22;10518;50.742;4.226;2022-08-03T15:58:08;33.40;94.10
20714;DHT22;10518;50.742;4.226;2022-08-03T16:00:34;33.30;93.90
20714;DHT22;10518;50.742;4.226;2022-08-03T16:03:00;32.90;94.30
20714;DHT22;10518;50.742;4.226;2022-08-03T16:05:26;32.60;94.50
20714;DHT22;10518;50.742;4.226;2022-08-03T16:07:51;32.50;94.70